Time;durP1;ratioP1;P1;durP2;ratioP2;P2;SDS_P1;SDS_P2;PMS_P1;PMS_P2;Temp;Humidity;BMP_temperature;BMP_pressure;BME280_temperature;BME280_humidity;BME280_pressure;Samples;Min_cycle;Max_cycle;Signal;HPM_P1;HPM_P2
2023/05/23 00:01:24;;;;;;;52.38;30.33;;;14.70;21.40;15.30;94043.00;;;;7397559;19;20665;-77
2023/05/23 00:03:54;;;;;;;44.25;29.95;;;14.60;31.50;15.40;94043.00;;;;7397371;19;20610;-77
2023/05/23 00:06:22;;;;;;;42.85;29.23;;;14.50;99.90;15.30;94072.00;;;;7398730;19;20140;-75
2023/05/23 00:08:56;;;;;;;39.00;27.73;;;14.40;99.90;15.20;94061.00;;;;7396815;19;20129;-77
2023/05/23 00:11:25;;;;;;;42.50;30.10;;;14.50;99.90;15.40;94052.00;;;;7398932;19;20129;-78
2023/05/23 00:14:07;;;;;;;43.30;28.65;;;14.40;1.00;15.30;94055.00;;;;7397304;19;20209;-77
2023/05/23 00:16:34;;;;;;;41.20;30.35;;;14.50;1.00;15.40;94035.00;;;;7396807;19;20148;-77
2023/05/23 00:19:13;;;;;;;54.22;32.33;;;14.60;1.00;15.30;94032.00;;;;7397341;19;20501;-78
2023/05/23 00:21:42;;;;;;;49.90;31.67;;;14.70;1.00;15.30;94028.00;;;;7401636;19;20616;-78
2023/05/23 00:24:17;;;;;;;57.92;35.20;;;14.60;1.00;15.20;94048.00;;;;7404017;19;20140;-77
2023/05/23 00:26:51;;;;;;;66.50;36.95;;;14.60;1.00;15.30;94039.00;;;;7404663;19;20143;-78
2023/05/23 00:29:25;;;;;;;73.65;40.38;;;14.60;1.00;15.20;94055.00;;;;7405398;19;20137;-78
2023/05/23 00:31:52;;;;;;;70.45;40.70;;;14.60;1.00;15.20;94052.00;;;;7404675;19;20600;-77
2023/05/23 00:34:19;;;;;;;82.93;43.05;;;14.60;1.00;15.40;94044.00;;;;7403946;19;20479;-76
2023/05/23 00:36:53;;;;;;;79.85;45.97;;;14.60;1.00;15.30;94055.00;;;;7403360;19;20139;-76
2023/05/23 00:39:20;;;;;;;77.43;44.90;;;14.60;1.00;15.20;94038.00;;;;7404122;19;20136;-78
2023/05/23 00:41:55;;;;;;;105.43;53.70;;;14.60;1.00;15.10;94062.00;;;;7404535;19;20144;-77
2023/05/23 00:44:28;;;;;;;97.20;52.83;;;14.60;1.00;15.10;94026.00;;;;7403684;19;20173;-78
2023/05/23 00:46:56;;;;;;;108.90;57.47;;;14.60;1.00;15.10;94027.00;;;;7403984;19;20173;-78
2023/05/23 00:49:30;;;;;;;98.20;53.42;;;14.60;1.00;15.00;94052.00;;;;7404276;19;20151;-78
2023/05/23 00:51:58;;;;;;;101.88;56.70;;;14.50;1.00;15.00;94061.00;;;;7406137;19;20135;-79
2023/05/23 00:54:33;;;;;;;106.53;57.05;;;14.50;1.00;15.10;94063.00;;;;7388292;19;20600;-79
2023/05/23 00:57:00;;;;;;;112.57;56.45;;;14.50;1.00;15.20;94063.00;;;;7405238;19;20146;-77
2023/05/23 00:59:36;;;;;;;105.13;56.67;;;14.50;1.00;15.00;94063.00;;;;7403194;19;20139;-78
2023/05/23 01:02:17;;;;;;;106.78;57.10;;;14.50;1.00;15.10;94059.00;;;;7396522;19;20203;-79
2023/05/23 01:05:01;;;;;;;110.70;57.42;;;14.50;1.00;15.10;94036.00;;;;7402638;19;20145;-80
2023/05/23 01:07:28;;;;;;;115.70;57.95;;;14.50;1.00;15.20;94068.00;;;;7402029;19;20148;-79
2023/05/23 01:10:03;;;;;;;122.43;58.75;;;14.40;1.00;15.10;94062.00;;;;7402843;19;20129;-79
2023/05/23 01:13:09;;;;;;;111.25;56.95;;;14.40;1.00;15.00;94073.00;;;;7401266;19;20172;-82
2023/05/23 01:15:56;;;;;;;109.00;55.78;;;14.50;1.00;15.00;94080.00;;;;7402878;19;20139;-80
2023/05/23 01:18:37;;;;;;;107.07;57.42;;;14.50;1.00;15.10;94034.00;;;;7402964;19;20124;-80
2023/05/23 01:21:17;;;;;;;102.95;55.22;;;14.50;1.00;15.10;94077.00;;;;7402638;19;20140;-80
2023/05/23 01:24:35;;;;;;;112.47;57.28;;;14.50;1.00;15.10;94075.00;;;;7401575;19;20546;-79
2023/05/23 01:27:50;;;;;;;107.20;55.65;;;14.40;1.00;15.10;94081.00;;;;7400927;19;20610;-79
2023/05/23 01:30:25;;;;;;;106.53;57.92;;;14.40;1.00;14.90;94078.00;;;;7401066;19;20154;-80
2023/05/23 01:33:00;;;;;;;104.03;59.28;;;14.40;1.00;15.10;94062.00;;;;7400918;19;20144;-80
2023/05/23 01:35:35;;;;;;;110.28;59.35;;;14.40;1.00;15.10;94056.00;;;;7400196;19;20139;-79
2023/05/23 01:38:02;;;;;;;107.30;59.38;;;14.40;1.00;15.20;94066.00;;;;7401666;19;20160;-80
2023/05/23 01:40:38;;;;;;;114.80;58.28;;;14.30;1.00;15.10;94074.00;;;;7400342;19;20137;-80
2023/05/23 01:43:05;;;;;;;117.82;60.20;;;14.30;1.00;15.00;94078.00;;;;7401509;19;20133;-80
2023/05/23 01:45:40;;;;;;;109.22;59.15;;;14.30;8.40;15.00;94079.00;;;;7400414;19;20601;-79
2023/05/23 01:48:09;;;;;;;107.88;60.90;;;14.30;3.80;15.10;94073.00;;;;7400354;19;20129;-78
2023/05/23 01:50:44;;;;;;;116.53;61.42;;;14.20;2.60;15.00;94077.00;;;;7401453;19;20602;-79
2023/05/23 01:53:15;;;;;;;110.38;59.10;;;14.20;10.00;15.00;94065.00;;;;7399303;19;20153;-79
2023/05/23 01:55:42;;;;;;;108.63;61.92;;;14.20;22.40;14.90;94045.00;;;;7401111;19;20125;-79
2023/05/23 01:58:15;;;;;;;121.38;62.63;;;14.20;53.20;14.90;94070.00;;;;7399659;19;20634;-79
2023/05/23 02:00:43;;;;;;;109.00;59.35;;;14.20;99.90;15.00;94066.00;;;;7399782;19;20546;-79
2023/05/23 02:03:29;;;;;;;101.90;60.85;;;14.20;99.90;14.90;94080.00;;;;7398390;19;20657;-80
2023/05/23 02:06:03;;;;;;;107.88;59.40;;;14.20;99.90;14.80;94074.00;;;;7399636;19;20584;-80
2023/05/23 02:08:37;;;;;;;118.03;59.50;;;14.20;99.90;14.80;94058.00;;;;7400964;19;20156;-79
2023/05/23 02:11:07;;;;;;;110.50;59.10;;;14.20;99.90;15.00;94053.00;;;;7400841;19;20151;-79
2023/05/23 02:13:41;;;;;;;105.82;60.08;;;14.20;99.90;15.00;94059.00;;;;7401070;19;20135;-80
2023/05/23 02:16:08;;;;;;;113.50;62.10;;;14.20;99.90;15.00;94053.00;;;;7399420;19;20543;-79
2023/05/23 02:18:44;;;;;;;117.30;59.75;;;14.20;99.90;15.10;94080.00;;;;7400408;19;20497;-79
2023/05/23 02:21:12;;;;;;;106.25;58.42;;;14.20;99.90;15.00;94070.00;;;;7400806;19;20132;-80
2023/05/23 02:23:45;;;;;;;108.95;56.25;;;14.20;99.90;14.90;94066.00;;;;7398934;19;20147;-80
2023/05/23 02:26:12;;;;;;;107.38;59.53;;;14.10;99.90;15.00;94043.00;;;;7400258;19;20596;-80
2023/05/23 02:28:40;;;;;;;108.47;58.92;;;14.20;99.90;15.00;94077.00;;;;7398786;19;20188;-80
2023/05/23 02:31:13;;;;;;;105.72;59.15;;;14.20;99.90;14.80;94086.00;;;;7398920;19;20445;-80
2023/05/23 02:33:40;;;;;;;98.28;54.90;;;14.20;99.90;14.90;94066.00;;;;7399757;19;20129;-80
2023/05/23 02:36:14;;;;;;;103.85;58.60;;;14.20;99.90;14.90;94072.00;;;;7398993;19;20137;-80
2023/05/23 02:38:41;;;;;;;98.72;55.67;;;14.20;99.90;14.90;94053.00;;;;7398191;19;20125;-80
2023/05/23 02:41:15;;;;;;;98.25;57.50;;;14.20;99.90;14.90;94089.00;;;;7400240;19;20154;-80
2023/05/23 02:43:51;;;;;;;95.03;56.45;;;14.20;99.90;14.90;94096.00;;;;7397873;19;20469;-80
2023/05/23 02:46:24;;;;;;;90.32;56.25;;;14.10;99.90;14.90;94047.00;;;;7398713;19;20148;-80
2023/05/23 02:48:58;;;;;;;100.22;57.33;;;14.10;99.90;14.90;94069.00;;;;7400236;19;20140;-80
2023/05/23 02:51:25;;;;;;;102.97;56.42;;;14.10;99.90;14.90;94065.00;;;;7400512;19;20129;-80
2023/05/23 02:53:59;;;;;;;99.57;56.72;;;14.10;99.90;14.90;94060.00;;;;7397884;19;20149;-80
2023/05/23 02:56:33;;;;;;;99.70;54.10;;;14.10;99.90;14.80;94090.00;;;;7397186;19;20621;-80
2023/05/23 02:59:00;;;;;;;88.75;53.33;;;14.10;99.90;14.80;94087.00;;;;7398893;19;20147;-79
2023/05/23 03:01:34;;;;;;;92.43;53.42;;;14.10;99.90;14.60;94079.00;;;;7397366;19;20144;-79
2023/05/23 03:04:08;;;;;;;95.15;55.17;;;14.10;99.90;14.70;94080.00;;;;7395762;19;20191;-80
2023/05/23 03:06:43;;;;;;;85.93;52.58;;;14.10;99.90;14.70;94099.00;;;;7397684;19;20622;-79
2023/05/23 03:09:10;;;;;;;93.47;53.28;;;14.10;93.20;14.60;94098.00;;;;7397314;19;20239;-81
2023/05/23 03:11:44;;;;;;;93.95;54.40;;;14.10;99.90;14.70;94085.00;;;;7398293;19;20137;-80
2023/05/23 03:14:11;;;;;;;81.97;50.03;;;14.10;77.80;14.60;94093.00;;;;7397476;19;20602;-80
2023/05/23 03:16:46;;;;;;;89.85;52.47;;;14.10;99.90;14.60;94094.00;;;;7399341;19;20128;-79
2023/05/23 03:19:20;;;;;;;93.32;52.88;;;14.10;99.90;14.50;94112.00;;;;7399123;19;20572;-79
2023/05/23 03:21:54;;;;;;;85.65;50.70;;;14.00;99.90;14.50;94108.00;;;;7398352;19;20155;-79
2023/05/23 03:24:21;;;;;;;83.93;51.00;;;14.00;99.90;14.50;94074.00;;;;7398131;19;20140;-80
2023/05/23 03:26:55;;;;;;;82.68;50.55;;;14.00;99.90;14.50;94094.00;;;;7399146;19;20483;-80
2023/05/23 03:29:22;;;;;;;87.78;50.40;;;14.00;99.90;14.40;94096.00;;;;7398995;19;20472;-82
2023/05/23 03:31:56;;;;;;;85.57;51.65;;;14.00;99.90;14.50;94099.00;;;;7399264;19;20133;-83
2023/05/23 03:34:37;;;;;;;88.10;52.67;;;14.00;99.90;14.50;94103.00;;;;7396583;19;20129;-83
2023/05/23 03:37:11;;;;;;;88.68;50.38;;;14.00;99.90;14.50;94098.00;;;;7397085;19;20509;-81
2023/05/23 03:39:45;;;;;;;84.20;50.75;;;13.90;99.90;14.40;94089.00;;;;7397667;19;20156;-80
2023/05/23 03:42:12;;;;;;;87.45;51.25;;;13.90;99.90;14.50;94097.00;;;;7396541;19;20145;-80
2023/05/23 03:44:46;;;;;;;77.97;49.30;;;13.80;99.90;14.50;94098.00;;;;7398278;19;20129;-80
2023/05/23 03:47:13;;;;;;;85.45;51.40;;;13.80;99.90;14.50;94108.00;;;;7398505;19;20137;-80
2023/05/23 03:49:47;;;;;;;82.90;51.08;;;13.80;99.90;14.40;94112.00;;;;7397838;19;20141;-80
2023/05/23 03:52:14;;;;;;;82.18;53.55;;;13.90;99.90;14.30;94105.00;;;;7395876;19;20149;-81
2023/05/23 03:54:48;;;;;;;88.93;53.03;;;13.90;99.90;14.30;94077.00;;;;7398874;19;20133;-81
2023/05/23 03:57:15;;;;;;;80.78;51.70;;;13.90;99.90;14.30;94104.00;;;;7405715;19;20140;-81
2023/05/23 03:59:49;;;;;;;87.65;52.78;;;13.80;99.90;14.20;94118.00;;;;7405730;19;20143;-78
2023/05/23 04:02:23;;;;;;;81.90;54.72;;;13.80;99.90;14.30;94095.00;;;;7405013;19;20133;-82
2023/05/23 04:05:05;;;;;;;102.53;56.72;;;13.80;99.90;14.50;94111.00;;;;7405931;19;20121;-81
2023/05/23 04:07:40;;;;;;;83.78;51.70;;;13.80;99.90;14.40;94101.00;;;;7405102;19;20168;-80
2023/05/23 04:10:14;;;;;;;84.63;54.20;;;13.70;99.90;14.30;94109.00;;;;7406047;19;20132;-80
2023/05/23 04:12:42;;;;;;;84.63;54.35;;;13.70;99.90;14.30;94108.00;;;;7405661;19;20477;-81
2023/05/23 04:15:16;;;;;;;89.18;56.30;;;13.70;1.00;14.30;94117.00;;;;7402188;19;20455;-80
2023/05/23 04:17:44;;;;;;;81.13;53.80;;;13.70;1.00;14.40;94109.00;;;;7404327;19;20164;-81
2023/05/23 04:20:17;;;;;;;91.57;56.72;;;13.60;1.00;14.20;94106.00;;;;7403611;19;20156;-81
2023/05/23 04:22:45;;;;;;;86.95;55.72;;;13.60;1.00;14.40;94118.00;;;;7403130;19;20244;-80
2023/05/23 04:25:19;;;;;;;84.00;56.55;;;13.60;1.00;14.40;94116.00;;;;7404413;19;20129;-80
2023/05/23 04:27:46;;;;;;;91.65;57.25;;;13.60;1.00;14.30;94113.00;;;;7404872;19;20456;-79
2023/05/23 04:30:17;;;;;;;98.13;59.65;;;13.50;1.00;14.20;94117.00;;;;7403346;19;20137;-79
2023/05/23 04:32:51;;;;;;;87.28;58.22;;;13.50;1.00;14.10;94113.00;;;;7400437;19;20223;-75
2023/05/23 04:35:18;;;;;;;91.65;61.50;;;13.60;1.00;14.10;94123.00;;;;7398691;19;20144;-75
2023/05/23 04:37:55;;;;;;;89.05;58.97;;;13.50;1.00;14.10;94120.00;;;;7400394;19;20515;-75
2023/05/23 04:40:30;;;;;;;92.40;59.42;;;13.50;1.00;14.00;94126.00;;;;7403392;19;20476;-75
2023/05/23 04:43:03;;;;;;;87.53;58.97;;;13.50;1.00;14.10;94132.00;;;;7402419;19;20140;-75
2023/05/23 04:45:30;;;;;;;90.82;58.53;;;13.50;1.00;14.20;94122.00;;;;7401268;19;20164;-75
2023/05/23 04:48:05;;;;;;;90.32;59.97;;;13.40;1.00;13.90;94127.00;;;;7404280;19;20506;-75
2023/05/23 04:50:34;;;;;;;90.95;59.63;;;13.40;1.00;14.10;94140.00;;;;7402055;19;20615;-75
2023/05/23 04:53:15;;;;;;;90.25;60.30;;;13.40;1.00;14.10;94135.00;;;;7402507;19;20144;-76
2023/05/23 04:55:42;;;;;;;79.90;55.17;;;13.40;1.00;14.00;94131.00;;;;7399738;19;20209;-75
2023/05/23 04:58:16;;;;;;;82.85;57.80;;;13.40;1.00;14.10;94142.00;;;;7401030;19;20137;-76
2023/05/23 05:00:43;;;;;;;84.45;56.70;;;13.40;1.00;13.90;94142.00;;;;7402901;19;20133;-75
2023/05/23 05:03:25;;;;;;;82.63;56.85;;;13.40;1.00;14.00;94143.00;;;;7398613;19;20247;-75
2023/05/23 05:05:59;;;;;;;91.88;58.20;;;13.40;1.00;14.00;94148.00;;;;7397807;19;20148;-75
2023/05/23 05:08:32;;;;;;;88.57;56.78;;;13.30;1.00;14.00;94149.00;;;;7398733;19;20200;-76
2023/05/23 05:11:06;;;;;;;97.90;58.97;;;13.30;1.00;13.80;94147.00;;;;7402793;19;20590;-74
2023/05/23 05:13:40;;;;;;;86.75;57.70;;;13.30;1.00;13.80;94134.00;;;;7384023;19;20176;-74
2023/05/23 05:16:15;;;;;;;85.35;57.10;;;13.20;1.00;13.80;94132.00;;;;7376086;19;20200;-74
2023/05/23 05:18:50;;;;;;;86.65;57.28;;;13.20;1.00;13.70;94165.00;;;;7386013;19;20593;-74
2023/05/23 05:21:23;;;;;;;91.18;58.88;;;13.20;14.30;13.60;94143.00;;;;7384470;19;20600;-74
2023/05/23 05:23:58;;;;;;;84.82;56.85;;;13.30;3.30;13.70;94139.00;;;;7385894;19;20592;-74
2023/05/23 05:26:26;;;;;;;92.22;57.30;;;13.20;1.00;13.70;94121.00;;;;7385836;19;20133;-74
2023/05/23 05:29:01;;;;;;;84.72;55.22;;;13.20;1.00;13.80;94160.00;;;;7378536;19;20155;-74
2023/05/23 05:31:28;;;;;;;82.53;55.95;;;13.20;1.00;13.70;94149.00;;;;7385654;19;20121;-74
2023/05/23 05:34:02;;;;;;;77.85;54.05;;;13.20;1.00;13.80;94164.00;;;;7382930;19;20177;-74
2023/05/23 05:36:36;;;;;;;75.10;53.25;;;13.10;1.00;13.60;94155.00;;;;7385514;19;20189;-74
2023/05/23 05:39:12;;;;;;;78.20;54.97;;;13.10;2.00;13.80;94144.00;;;;7385802;19;20591;-74
2023/05/23 05:41:40;;;;;;;74.80;52.50;;;13.20;1.00;13.70;94157.00;;;;7385785;19;20950;-74
2023/05/23 05:44:14;;;;;;;73.53;53.55;;;13.20;1.00;13.80;94160.00;;;;7383438;19;20172;-74
2023/05/23 05:46:41;;;;;;;71.47;52.70;;;13.20;1.00;13.70;94141.00;;;;7383724;19;20520;-75
2023/05/23 05:49:15;;;;;;;71.68;51.38;;;13.20;1.00;13.60;94146.00;;;;7384474;19;20141;-75
2023/05/23 05:52:03;;;;;;;75.10;52.45;;;13.20;1.00;13.70;94140.00;;;;7385459;19;20236;-74
2023/05/23 05:54:36;;;;;;;75.50;51.22;;;13.20;1.00;13.80;94143.00;;;;7383741;19;20169;-74
2023/05/23 05:57:04;;;;;;;68.30;50.15;;;13.20;1.00;13.80;94150.00;;;;7383543;19;20129;-74
2023/05/23 05:59:38;;;;;;;68.60;49.47;;;13.30;1.00;14.10;94158.00;;;;7384834;19;20138;-75
2023/05/23 06:02:05;;;;;;;69.18;49.55;;;13.30;1.00;14.00;94158.00;;;;7384815;19;20163;-74
2023/05/23 06:04:46;;;;;;;69.78;47.05;;;13.30;1.00;14.10;94153.00;;;;7384629;19;20183;-74
2023/05/23 06:07:20;;;;;;;67.55;48.20;;;13.40;1.00;14.10;94131.00;;;;7384698;19;20180;-75
2023/05/23 06:09:54;;;;;;;59.40;46.92;;;13.40;99.90;14.10;94156.00;;;;7384958;19;20129;-75
2023/05/23 06:12:22;;;;;;;60.58;46.47;;;13.50;99.90;14.10;94134.00;;;;7385938;19;20146;-75
2023/05/23 06:14:55;;;;;;;62.90;46.85;;;13.60;99.90;14.00;94146.00;;;;7385167;19;20141;-75
2023/05/23 06:17:22;;;;;;;62.65;44.05;;;13.60;4.80;14.20;94145.00;;;;7383409;19;20615;-75
2023/05/23 06:19:56;;;;;;;57.03;43.55;;;13.70;2.90;14.40;94137.00;;;;7382322;19;20612;-75
2023/05/23 06:22:30;;;;;;;55.72;42.65;;;13.70;1.00;14.80;94149.00;;;;7384448;19;20133;-75
2023/05/23 06:25:06;;;;;;;48.70;38.95;;;13.80;1.00;14.80;94154.00;;;;7383882;19;20148;-75
2023/05/23 06:27:40;;;;;;;51.50;42.80;;;13.90;1.00;14.20;94157.00;;;;7383503;19;20180;-76
2023/05/23 06:30:08;;;;;;;52.58;39.65;;;13.90;99.90;14.00;94158.00;;;;7382955;19;20156;-75
2023/05/23 06:32:41;;;;;;;51.80;38.05;;;13.90;99.90;14.20;94159.00;;;;7383510;19;20615;-75
2023/05/23 06:35:09;;;;;;;49.45;39.75;;;13.80;99.90;14.20;94155.00;;;;7383727;19;20129;-75
2023/05/23 06:37:44;;;;;;;44.03;37.40;;;13.70;99.90;14.00;94146.00;;;;7383437;19;20173;-75
2023/05/23 06:40:15;;;;;;;49.10;39.50;;;13.60;99.90;13.90;94182.00;;;;7383417;19;20152;-75
2023/05/23 06:42:48;;;;;;;47.47;37.50;;;13.50;99.90;13.60;94193.00;;;;7383964;19;20148;-75
2023/05/23 06:45:16;;;;;;;45.78;37.13;;;13.40;99.90;13.50;94180.00;;;;7382165;19;20224;-76
2023/05/23 06:47:50;;;;;;;46.42;37.08;;;13.40;99.90;13.50;94184.00;;;;7383367;19;20156;-76
2023/05/23 06:50:18;;;;;;;46.95;37.85;;;13.30;99.90;13.70;94201.00;;;;7382483;19;20135;-76
2023/05/23 06:52:52;;;;;;;50.42;37.80;;;13.20;99.90;13.60;94195.00;;;;7382396;19;20138;-75
2023/05/23 06:55:20;;;;;;;51.28;40.05;;;13.20;99.90;13.80;94197.00;;;;7383845;19;20145;-76
2023/05/23 06:57:53;;;;;;;52.15;39.70;;;13.10;99.90;13.60;94181.00;;;;7382572;19;20591;-76
2023/05/23 07:00:20;;;;;;;51.15;40.72;;;13.10;99.90;13.80;94210.00;;;;7381701;19;20203;-75
2023/05/23 07:03:02;;;;;;;49.85;39.30;;;13.00;99.90;13.80;94217.00;;;;7381502;19;20195;-75
2023/05/23 07:05:32;;;;;;;48.47;39.88;;;13.10;99.90;13.50;94207.00;;;;7381087;19;20159;-75
2023/05/23 07:08:09;;;;;;;51.55;38.30;;;13.10;99.90;13.60;94211.00;;;;7383265;19;20470;-76
2023/05/23 07:10:40;;;;;;;47.42;37.08;;;13.10;35.70;13.80;94215.00;;;;7383276;19;20136;-76
2023/05/23 07:13:13;;;;;;;43.05;35.80;;;13.10;99.90;13.80;94173.00;;;;7383417;19;20128;-76
2023/05/23 07:15:47;;;;;;;44.58;36.53;;;13.10;99.90;13.70;94180.00;;;;7382751;19;20133;-76
2023/05/23 07:18:15;;;;;;;40.60;34.05;;;13.10;1.00;13.90;94221.00;;;;7381416;19;20615;-75
2023/05/23 07:20:51;;;;;;;38.05;32.97;;;13.00;1.00;13.80;94194.00;;;;7381391;19;20695;-75
2023/05/23 07:23:18;;;;;;;39.53;33.30;;;13.00;1.00;13.80;94214.00;;;;7381568;19;20236;-75
2023/05/23 07:25:54;;;;;;;39.08;33.42;;;13.10;1.00;13.60;94206.00;;;;7382945;19;20618;-75
2023/05/23 07:28:29;;;;;;;44.00;33.78;;;13.00;1.00;13.80;94231.00;;;;7381679;19;20159;-76
2023/05/23 07:30:57;;;;;;;39.85;32.70;;;13.00;1.00;13.80;94190.00;;;;7381711;19;20160;-75
2023/05/23 07:33:33;;;;;;;36.22;30.05;;;13.10;1.00;13.80;94210.00;;;;7382514;19;20136;-75
2023/05/23 07:36:00;;;;;;;35.35;29.13;;;13.10;1.00;14.00;94216.00;;;;7380383;19;20155;-75
2023/05/23 07:38:28;;;;;;;31.27;26.45;;;13.20;1.00;14.20;94196.00;;;;7381035;19;20133;-76
2023/05/23 07:41:01;;;;;;;33.70;25.45;;;13.20;99.90;14.40;94165.00;;;;7380552;19;20580;-75
2023/05/23 07:43:37;;;;;;;29.48;24.75;;;13.30;57.40;14.00;94208.00;;;;7382418;19;20149;-75
2023/05/23 07:46:11;;;;;;;27.90;23.88;;;13.60;1.00;14.10;94163.00;;;;7378438;19;20200;-77
2023/05/23 07:48:45;;;;;;;26.20;23.02;;;13.80;1.00;14.40;94196.00;;;;7380696;19;20136;-75
2023/05/23 07:51:20;;;;;;;28.10;21.73;;;13.90;99.90;14.60;94191.00;;;;7381434;19;20129;-75
2023/05/23 07:53:47;;;;;;;31.25;23.60;;;13.90;99.90;14.50;94212.00;;;;7382035;19;20592;-76
2023/05/23 07:56:21;;;;;;;25.50;21.75;;;14.00;99.90;14.20;94193.00;;;;7380032;19;20128;-76
2023/05/23 07:58:49;;;;;;;26.05;21.40;;;14.00;12.40;14.10;94214.00;;;;7380025;19;20144;-76
2023/05/23 08:01:24;;;;;;;25.85;21.48;;;13.90;52.30;14.20;94214.00;;;;7381162;19;20133;-75
2023/05/23 08:03:51;;;;;;;24.17;21.55;;;13.80;99.90;13.70;94223.00;;;;7379401;19;20172;-75
2023/05/23 08:06:25;;;;;;;25.77;22.05;;;13.80;70.40;14.20;94219.00;;;;7377975;19;20156;-76
2023/05/23 08:09:00;;;;;;;28.98;21.33;;;13.70;78.50;14.30;94219.00;;;;7379056;19;20149;-75
2023/05/23 08:11:34;;;;;;;26.30;21.33;;;13.50;99.90;14.10;94231.00;;;;7379569;19;20136;-76
2023/05/23 08:14:01;;;;;;;27.70;22.65;;;13.50;99.90;13.70;94236.00;;;;7379577;19;20135;-75
2023/05/23 08:16:36;;;;;;;29.52;22.60;;;13.40;99.90;14.10;94203.00;;;;7380766;19;20244;-76
2023/05/23 08:19:09;;;;;;;22.90;19.92;;;13.40;99.90;13.90;94232.00;;;;7381518;19;20210;-76
2023/05/23 08:21:44;;;;;;;22.48;19.23;;;13.50;99.90;14.60;94233.00;;;;7380737;19;20124;-75
2023/05/23 08:24:12;;;;;;;25.90;22.25;;;13.70;99.90;14.10;94238.00;;;;7379235;19;20152;-76
2023/05/23 08:26:46;;;;;;;24.60;20.92;;;13.90;1.00;14.70;94232.00;;;;7379860;19;20129;-75
2023/05/23 08:29:13;;;;;;;24.98;20.85;;;14.00;1.00;14.50;94222.00;;;;7379368;19;20156;-75
2023/05/23 08:31:47;;;;;;;24.73;20.77;;;14.20;99.90;14.60;94186.00;;;;7380000;19;20152;-74
2023/05/23 08:34:14;;;;;;;26.45;20.08;;;14.50;99.90;14.50;94231.00;;;;7378632;19;20149;-76
2023/05/23 08:36:49;;;;;;;26.15;20.15;;;14.60;84.50;14.20;94231.00;;;;7378679;19;20518;-74
2023/05/23 08:39:17;;;;;;;24.95;19.83;;;14.40;99.90;14.00;94240.00;;;;7378699;19;20129;-75
2023/05/23 08:41:45;;;;;;;25.10;21.83;;;14.30;99.90;14.50;94238.00;;;;7382054;19;20169;-75
2023/05/23 08:44:18;;;;;;;23.73;20.70;;;14.30;99.90;15.20;94210.00;;;;7387184;19;20137;-75
2023/05/23 08:46:52;;;;;;;25.23;19.23;;;14.40;99.90;15.90;94199.00;;;;7386685;19;20131;-76
2023/05/23 08:49:25;;;;;;;25.88;18.58;;;14.80;57.40;15.90;94227.00;;;;7385759;19;20646;-75
2023/05/23 08:52:00;;;;;;;22.50;18.77;;;15.10;1.00;15.60;94230.00;;;;7385562;19;20132;-77
2023/05/23 08:54:35;;;;;;;21.60;17.83;;;15.40;1.00;15.60;94235.00;;;;7386864;19;20164;-75
2023/05/23 08:57:09;;;;;;;21.67;18.00;;;15.50;1.00;15.60;94249.00;;;;7385313;19;20153;-77
2023/05/23 08:59:45;;;;;;;25.05;19.95;;;15.40;1.00;14.60;94257.00;;;;7386719;19;20491;-75
2023/05/23 09:02:21;;;;;;;20.90;18.23;;;15.20;1.00;15.00;94237.00;;;;7385188;19;20148;-75
2023/05/23 09:04:54;;;;;;;20.88;18.42;;;14.90;1.00;15.50;94254.00;;;;7386109;19;20191;-75
2023/05/23 09:07:28;;;;;;;21.58;19.17;;;14.90;1.00;15.30;94212.00;;;;7384771;19;20224;-74
2023/05/23 09:10:09;;;;;;;21.65;18.08;;;14.80;1.00;15.00;94248.00;;;;7385588;19;20166;-76
2023/05/23 09:12:42;;;;;;;23.33;18.63;;;15.00;1.00;15.90;94253.00;;;;7385069;19;20604;-76
2023/05/23 09:15:16;;;;;;;20.08;16.80;;;15.40;1.00;15.50;94241.00;;;;7384600;19;20129;-75
2023/05/23 09:17:44;;;;;;;19.85;16.65;;;15.70;99.90;16.30;94245.00;;;;7384389;19;20149;-75
2023/05/23 09:20:17;;;;;;;21.33;16.73;;;15.80;1.00;16.60;94254.00;;;;7384720;19;22739;-75
2023/05/23 09:22:47;;;;;;;25.10;16.33;;;15.90;99.90;16.00;94253.00;;;;7384843;19;20553;-76
2023/05/23 09:25:20;;;;;;;18.75;16.75;;;15.90;99.90;16.20;94201.00;;;;7385834;19;20128;-77
2023/05/23 09:27:58;;;;;;;18.35;16.15;;;15.80;99.90;16.00;94168.00;;;;7386589;19;20136;-76
2023/05/23 09:30:26;;;;;;;18.30;15.35;;;16.00;99.90;17.40;94232.00;;;;7384034;19;20151;-75
2023/05/23 09:32:59;;;;;;;16.33;14.63;;;16.40;99.90;17.10;94234.00;;;;7381511;19;20160;-74
2023/05/23 09:35:33;;;;;;;17.00;14.60;;;16.80;99.90;18.90;94173.00;;;;7385190;19;20149;-76
2023/05/23 09:38:01;;;;;;;18.75;12.63;;;17.30;99.90;18.50;94234.00;;;;7383922;19;20643;-76
2023/05/23 09:40:34;;;;;;;15.43;13.25;;;17.90;47.40;18.20;94229.00;;;;7383320;19;20156;-75
2023/05/23 09:43:04;;;;;;;15.55;13.45;;;18.00;3.60;17.60;94198.00;;;;7384154;19;20175;-75
2023/05/23 09:45:37;;;;;;;14.50;12.85;;;17.90;4.20;17.80;94245.00;;;;7385297;19;20197;-75
2023/05/23 09:48:12;;;;;;;18.23;13.95;;;17.80;11.40;17.20;94256.00;;;;7383860;19;20208;-75
2023/05/23 09:50:50;;;;;;;16.88;13.65;;;17.60;4.50;16.50;94255.00;;;;7383376;19;20124;-75
2023/05/23 09:53:20;;;;;;;15.55;13.75;;;17.40;28.00;16.60;94249.00;;;;7383432;19;20141;-75
2023/05/23 09:55:56;;;;;;;14.90;12.57;;;17.40;67.50;17.10;94205.00;;;;7385338;19;20462;-75
2023/05/23 09:58:27;;;;;;;15.45;13.85;;;17.70;17.30;18.80;94234.00;;;;7385318;19;20133;-75
2023/05/23 10:01:03;;;;;;;14.50;12.80;;;17.80;39.40;18.60;94233.00;;;;7382764;19;20204;-75
2023/05/23 10:03:54;;;;;;;16.23;14.23;;;18.00;1.00;19.50;94207.00;;;;7384652;19;20168;-75
2023/05/23 10:06:54;;;;;;;13.93;12.43;;;18.40;1.00;19.20;94254.00;;;;7383559;19;20232;-75
2023/05/23 10:09:36;;;;;;;14.23;12.73;;;18.40;1.00;18.60;94254.00;;;;7383038;19;20192;-75
2023/05/23 10:12:28;;;;;;;15.23;12.60;;;18.10;1.00;18.50;94240.00;;;;7383527;19;20132;-75
2023/05/23 10:15:04;;;;;;;14.80;13.07;;;18.00;1.00;19.50;94247.00;;;;7385113;19;20467;-75
2023/05/23 10:18:05;;;;;;;11.77;10.57;;;18.30;16.80;19.90;94251.00;;;;7385868;19;20168;-75
2023/05/23 10:20:44;;;;;;;14.18;11.93;;;18.70;1.00;19.60;94227.00;;;;7382085;19;20181;-76
2023/05/23 10:23:12;;;;;;;13.07;11.65;;;18.90;1.00;18.50;94250.00;;;;7384628;19;20143;-75
2023/05/23 10:25:47;;;;;;;12.43;11.13;;;18.90;1.00;18.80;94254.00;;;;7384695;19;20132;-76
2023/05/23 10:28:15;;;;;;;16.83;10.88;;;18.90;1.00;18.20;94249.00;;;;7382849;19;20125;-75
2023/05/23 10:30:50;;;;;;;14.95;12.02;;;18.80;1.00;18.40;94251.00;;;;7383327;19;20132;-76
2023/05/23 10:33:18;;;;;;;13.98;11.82;;;18.50;1.00;17.90;94264.00;;;;7384276;19;20129;-75
2023/05/23 10:35:56;;;;;;;13.60;12.18;;;18.10;1.00;17.40;94271.00;;;;7382419;19;20140;-75
2023/05/23 10:38:50;;;;;;;14.65;11.98;;;17.70;1.00;18.10;94249.00;;;;7382935;19;20129;-75
2023/05/23 10:41:47;;;;;;;13.50;11.95;;;17.50;1.00;18.90;94234.00;;;;7384628;19;20131;-76
2023/05/23 10:44:27;;;;;;;15.93;11.45;;;17.70;1.00;18.80;94224.00;;;;7382429;19;20152;-75
2023/05/23 10:47:02;;;;;;;16.80;11.15;;;17.90;1.00;18.60;94248.00;;;;7384404;19;20133;-76
2023/05/23 10:49:41;;;;;;;12.98;10.90;;;17.90;1.00;18.30;94253.00;;;;7383805;19;20482;-77
2023/05/23 10:52:17;;;;;;;15.27;11.07;;;17.90;1.00;17.80;94260.00;;;;7382838;19;20152;-76
2023/05/23 10:54:51;;;;;;;13.45;11.55;;;18.00;1.00;17.80;94274.00;;;;7382107;19;20148;-76
2023/05/23 10:57:26;;;;;;;10.95;9.85;;;17.90;1.00;17.90;94268.00;;;;7382775;19;22662;-76
2023/05/23 10:59:54;;;;;;;12.45;10.48;;;17.90;1.00;18.10;94258.00;;;;7382576;19;20169;-76
2023/05/23 11:02:29;;;;;;;11.95;10.40;;;17.90;1.00;18.00;94238.00;;;;7382364;19;20211;-75
2023/05/23 11:05:23;;;;;;;12.95;10.18;;;17.90;1.00;18.10;94258.00;;;;7378866;19;20530;-75
2023/05/23 11:08:12;;;;;;;10.70;9.70;;;18.10;1.00;16.90;94272.00;;;;7383063;19;20130;-75
2023/05/23 11:11:06;;;;;;;10.63;9.20;;;18.00;1.00;18.00;94263.00;;;;7384266;19;20136;-76